Lostcreek, Wisconsin
Current Conditions -  °F | °C
As of 6:11 AM on Friday 19 Dec 2014 (Local Time) from KRGK Reporting Station
Overcast Overcast  
Wind Chill: 23°   Ceiling: 9000
Heat Index: 23°   Visibility: 10mi
Dew Point: 18°   Wind: 3mph
Humidity: 80%   Direction: 140°SE
Pressure: 30.26"   Gusts: NA
Location:  44.7206°N, 92.4859°W
Report Text: KRGK 191211Z AUTO 14003KT 10SM OVC090 M05/M08 A3026 RMK AO2
Loading
Personal Weather Stations






























Interactive Weather Map New forecast layout! Learn more

10-Day Weather Forecast

Advertisements
Track Severe Weather on mobile